createdAt,value
2023-03-19T00:00:30.932Z,12.55
2023-03-19T00:03:00.104Z,12.13
2023-03-19T00:05:26.974Z,10.90
2023-03-19T00:07:53.560Z,9.98
2023-03-19T00:10:21.411Z,11.98
2023-03-19T00:12:48.172Z,10.65
2023-03-19T00:15:15.484Z,11.73
2023-03-19T00:17:43.833Z,9.63
2023-03-19T00:20:12.401Z,9.73
2023-03-19T00:22:43.025Z,10.77
2023-03-19T00:25:11.764Z,10.93
2023-03-19T00:27:38.889Z,11.55
2023-03-19T00:30:07.267Z,12.00
2023-03-19T00:32:34.351Z,9.30
2023-03-19T00:35:01.550Z,11.07
2023-03-19T00:37:28.808Z,10.32
2023-03-19T00:39:55.795Z,10.85
2023-03-19T00:42:22.692Z,10.20
2023-03-19T00:44:49.259Z,9.38
2023-03-19T00:47:17.674Z,13.20
2023-03-19T00:49:44.348Z,10.73
2023-03-19T00:52:11.305Z,12.90
2023-03-19T00:54:41.058Z,13.38
2023-03-19T00:57:07.932Z,10.05
2023-03-19T00:59:34.590Z,11.23
2023-03-19T01:02:01.647Z,11.10
2023-03-19T01:04:28.444Z,13.13
2023-03-19T01:06:55.754Z,10.18
2023-03-19T01:09:22.952Z,11.10
2023-03-19T01:11:49.631Z,11.23
2023-03-19T01:14:17.369Z,9.68
2023-03-19T01:16:44.260Z,10.77
2023-03-19T01:19:11.072Z,13.07
2023-03-19T01:21:37.733Z,11.20
2023-03-19T01:24:06.302Z,11.13
2023-03-19T01:26:32.960Z,10.43
2023-03-19T01:28:59.586Z,11.63
2023-03-19T01:31:27.042Z,12.32
2023-03-19T01:33:59.088Z,12.38
2023-03-19T01:36:25.927Z,11.68
2023-03-19T01:38:52.659Z,10.95
2023-03-19T01:41:19.764Z,9.10
2023-03-19T01:43:46.477Z,9.63
2023-03-19T01:46:24.608Z,10.35
2023-03-19T01:48:54.210Z,11.15
2023-03-19T01:51:24.050Z,10.73
2023-03-19T01:53:53.762Z,10.07
2023-03-19T01:56:24.603Z,10.45
2023-03-19T01:58:56.096Z,11.32
2023-03-19T02:01:23.238Z,11.48
2023-03-19T02:03:51.338Z,13.10
2023-03-19T02:06:20.562Z,9.35
2023-03-19T02:08:48.055Z,11.68
2023-03-19T02:11:17.319Z,12.68
2023-03-19T02:13:44.133Z,11.55
2023-03-19T02:16:11.433Z,11.35
2023-03-19T02:18:38.381Z,12.80
2023-03-19T02:21:13.152Z,12.30
2023-03-19T02:23:52.362Z,15.02
2023-03-19T02:26:21.048Z,12.18
2023-03-19T02:28:49.064Z,13.57
2023-03-19T02:31:16.447Z,11.15
2023-03-19T02:33:46.362Z,15.93
2023-03-19T02:36:18.757Z,9.82
2023-03-19T02:38:51.149Z,12.00
2023-03-19T02:41:20.353Z,13.30
2023-03-19T02:43:47.215Z,11.32
2023-03-19T02:46:15.839Z,12.95
2023-03-19T02:48:45.303Z,13.00
2023-03-19T02:51:12.120Z,13.02
2023-03-19T02:53:39.720Z,13.02
2023-03-19T02:56:06.888Z,11.82
2023-03-19T02:58:33.599Z,12.52
2023-03-19T03:03:35.759Z,15.55
2023-03-19T03:06:02.546Z,10.07
2023-03-19T03:08:29.211Z,14.73
2023-03-19T03:10:55.962Z,10.20
2023-03-19T03:13:22.732Z,13.10
2023-03-19T03:15:49.769Z,11.10
2023-03-19T03:18:17.906Z,9.90
2023-03-19T03:20:45.386Z,12.93
2023-03-19T03:23:12.210Z,10.38
2023-03-19T03:25:38.812Z,10.38
2023-03-19T03:28:05.559Z,13.95
2023-03-19T03:30:32.415Z,13.60
2023-03-19T03:32:59.508Z,12.18
2023-03-19T03:35:27.477Z,12.38
2023-03-19T03:37:54.178Z,12.38
2023-03-19T03:40:22.248Z,10.02
2023-03-19T03:42:48.944Z,15.10
2023-03-19T03:45:16.704Z,12.57
2023-03-19T03:47:46.631Z,11.25
2023-03-19T03:50:14.078Z,13.48
2023-03-19T03:52:43.977Z,11.25
2023-03-19T03:55:11.111Z,12.80
2023-03-19T03:57:37.904Z,10.82
2023-03-19T04:00:05.448Z,10.57
2023-03-19T04:02:37.317Z,12.50
2023-03-19T04:05:04.475Z,11.40
2023-03-19T04:07:34.178Z,12.60
2023-03-19T04:10:04.097Z,10.52
2023-03-19T04:12:33.080Z,13.10
2023-03-19T04:14:59.690Z,12.13
2023-03-19T04:17:29.521Z,11.60
2023-03-19T04:19:56.685Z,13.27
2023-03-19T04:22:23.336Z,11.00
2023-03-19T04:24:51.011Z,11.10
2023-03-19T04:27:17.741Z,12.13
2023-03-19T04:29:49.557Z,12.50
2023-03-19T04:32:20.161Z,10.45
2023-03-19T04:34:46.818Z,10.55
2023-03-19T04:37:13.535Z,11.30
2023-03-19T04:39:40.182Z,9.82
2023-03-19T04:42:07.305Z,14.02
2023-03-19T04:44:34.119Z,13.35
2023-03-19T04:47:01.120Z,12.90
2023-03-19T04:49:31.487Z,12.30
2023-03-19T04:51:58.439Z,11.15
2023-03-19T04:54:25.768Z,11.23
2023-03-19T04:56:53.325Z,11.35
2023-03-19T04:59:22.533Z,11.57
2023-03-19T05:01:51.118Z,12.90
2023-03-19T05:04:18.162Z,11.43
2023-03-19T05:06:45.275Z,14.65
2023-03-19T05:09:12.170Z,13.18
2023-03-19T05:11:38.860Z,11.48
2023-03-19T05:14:05.836Z,11.98
2023-03-19T05:16:34.150Z,12.93
2023-03-19T05:19:00.975Z,12.77
2023-03-19T05:21:28.556Z,12.90
2023-03-19T05:23:57.329Z,10.82
2023-03-19T05:26:24.352Z,15.02
2023-03-19T05:28:51.035Z,11.68
2023-03-19T05:31:17.798Z,12.43
2023-03-19T05:33:48.540Z,14.93
2023-03-19T05:36:15.476Z,15.52
2023-03-19T05:38:43.049Z,12.07
2023-03-19T05:41:09.810Z,18.30
2023-03-19T05:43:36.466Z,18.20
2023-03-19T05:46:04.937Z,11.05
2023-03-19T05:48:34.434Z,10.52
2023-03-19T05:51:01.396Z,11.57
2023-03-19T05:53:28.167Z,14.20
2023-03-19T05:55:54.804Z,11.35
2023-03-19T05:58:21.570Z,14.95
2023-03-19T06:00:49.392Z,14.50
2023-03-19T06:03:16.749Z,12.32
2023-03-19T06:05:43.294Z,14.32
2023-03-19T06:08:10.166Z,14.10
2023-03-19T06:10:37.333Z,14.68
2023-03-19T06:13:05.766Z,12.43
2023-03-19T06:15:34.439Z,13.88
2023-03-19T06:18:04.099Z,12.35
2023-03-19T06:20:30.927Z,11.38
2023-03-19T06:23:00.367Z,14.40
2023-03-19T06:25:27.172Z,10.45
2023-03-19T06:27:53.845Z,12.60
2023-03-19T06:30:20.604Z,12.65
2023-03-19T06:32:47.335Z,11.57
2023-03-19T06:35:14.373Z,10.82
2023-03-19T06:37:44.095Z,14.25
2023-03-19T06:40:12.672Z,13.93
2023-03-19T06:42:42.019Z,9.98
2023-03-19T06:45:12.093Z,12.52
2023-03-19T06:47:41.773Z,11.05
2023-03-19T06:50:09.536Z,11.90
2023-03-19T06:52:36.538Z,13.15
2023-03-19T06:55:03.678Z,13.20
2023-03-19T06:57:30.790Z,12.68
2023-03-19T06:59:57.465Z,14.27
2023-03-19T07:02:27.326Z,12.63
2023-03-19T07:04:54.112Z,15.52
2023-03-19T07:07:21.186Z,13.15
2023-03-19T07:09:48.016Z,12.63
2023-03-19T07:12:14.835Z,14.65
2023-03-19T07:14:43.858Z,12.15
2023-03-19T07:17:13.584Z,11.27
2023-03-19T07:19:40.554Z,13.45
2023-03-19T07:22:08.162Z,12.85
2023-03-19T07:24:34.878Z,16.27
2023-03-19T07:27:02.426Z,16.42
2023-03-19T07:29:30.756Z,14.05
2023-03-19T07:32:00.367Z,13.15
2023-03-19T07:34:27.494Z,14.60
2023-03-19T07:36:54.092Z,15.32
2023-03-19T07:39:21.210Z,15.05
2023-03-19T07:41:48.827Z,15.10
2023-03-19T07:44:18.259Z,14.60
2023-03-19T07:46:44.880Z,16.40
2023-03-19T07:49:15.517Z,14.80
2023-03-19T07:51:43.818Z,13.93
2023-03-19T07:54:10.501Z,14.55
2023-03-19T07:56:37.270Z,13.68
2023-03-19T07:59:07.446Z,16.50
2023-03-19T08:01:34.094Z,17.67
2023-03-19T08:04:01.051Z,17.10
2023-03-19T08:06:28.593Z,15.48
2023-03-19T08:08:55.318Z,14.45
2023-03-19T08:11:22.342Z,14.20
2023-03-19T08:13:49.054Z,17.27
2023-03-19T08:16:15.693Z,22.35
2023-03-19T08:18:42.604Z,14.10
2023-03-19T08:21:11.441Z,15.50
2023-03-19T08:23:41.208Z,16.42
2023-03-19T08:26:08.481Z,13.35
2023-03-19T08:28:35.883Z,14.63
2023-03-19T08:31:10.344Z,12.52
2023-03-19T08:33:40.479Z,18.85
2023-03-19T08:36:11.781Z,18.38
2023-03-19T08:38:38.775Z,18.35
2023-03-19T08:41:07.097Z,17.35
2023-03-19T08:43:35.321Z,14.18
2023-03-19T08:46:02.283Z,18.00
2023-03-19T08:48:29.366Z,16.95
2023-03-19T08:50:57.956Z,14.02
2023-03-19T08:53:25.664Z,17.60
2023-03-19T08:55:57.449Z,16.10
2023-03-19T08:58:26.840Z,16.83
2023-03-19T09:00:53.622Z,22.25
2023-03-19T09:03:24.337Z,13.60
2023-03-19T09:05:50.982Z,15.95
2023-03-19T09:08:17.629Z,17.25
2023-03-19T09:10:44.274Z,17.85
2023-03-19T09:13:11.277Z,13.50
2023-03-19T09:15:38.043Z,16.83
2023-03-19T09:18:04.712Z,13.25
2023-03-19T09:20:31.317Z,12.10
2023-03-19T09:22:59.566Z,13.55
2023-03-19T09:25:29.443Z,14.52
2023-03-19T09:27:56.428Z,13.32
2023-03-19T09:30:23.188Z,13.50
2023-03-19T09:32:51.619Z,11.73
2023-03-19T09:35:18.375Z,15.32
2023-03-19T09:37:45.090Z,15.40
2023-03-19T09:40:22.414Z,14.73
2023-03-19T09:43:04.037Z,13.32
2023-03-19T09:45:31.526Z,12.40
2023-03-19T09:48:06.886Z,10.93
2023-03-19T09:50:38.908Z,17.08
2023-03-19T09:53:10.957Z,14.65
2023-03-19T09:55:50.540Z,14.20
2023-03-19T09:58:23.705Z,10.52
2023-03-19T10:00:55.637Z,13.70
2023-03-19T10:03:31.769Z,13.73
2023-03-19T10:06:21.413Z,11.23
2023-03-19T10:09:26.972Z,12.15
2023-03-19T10:12:37.643Z,12.57
2023-03-19T10:15:20.614Z,10.13
2023-03-19T10:17:58.662Z,12.07
2023-03-19T10:20:41.324Z,11.05
2023-03-19T10:23:36.439Z,12.25
2023-03-19T10:26:08.585Z,11.50
2023-03-19T10:28:36.801Z,10.48
2023-03-19T10:31:22.189Z,10.80
2023-03-19T10:34:10.832Z,9.40
2023-03-19T10:36:38.158Z,12.98
2023-03-19T10:39:08.096Z,10.05
2023-03-19T10:41:39.755Z,9.10
2023-03-19T10:44:15.154Z,9.27
2023-03-19T10:46:45.503Z,9.48
2023-03-19T10:49:13.562Z,14.32
2023-03-19T10:51:44.014Z,12.65
2023-03-19T10:54:31.954Z,10.68
2023-03-19T10:57:03.760Z,8.52
2023-03-19T10:59:30.589Z,8.68
2023-03-19T11:02:03.644Z,9.05
2023-03-19T11:04:32.454Z,11.40
2023-03-19T11:07:15.241Z,9.93
2023-03-19T11:09:45.886Z,11.65
2023-03-19T11:12:21.439Z,7.95
2023-03-19T11:14:50.512Z,9.93
2023-03-19T11:17:26.943Z,12.23
2023-03-19T11:19:55.736Z,9.98
2023-03-19T11:22:28.232Z,7.63
2023-03-19T11:25:14.588Z,8.02
2023-03-19T11:27:44.810Z,7.38
2023-03-19T11:30:18.552Z,7.65
2023-03-19T11:33:14.639Z,11.07
2023-03-19T11:36:07.938Z,6.72
2023-03-19T11:38:43.792Z,7.40
2023-03-19T11:41:38.948Z,6.28
2023-03-19T11:44:20.212Z,7.68
2023-03-19T11:47:26.841Z,9.48
2023-03-19T11:50:05.596Z,5.55
2023-03-19T11:52:51.005Z,7.07
2023-03-19T11:55:46.691Z,6.88
2023-03-19T11:58:44.449Z,7.18
2023-03-19T12:01:35.981Z,6.78
2023-03-19T12:04:03.761Z,6.47
2023-03-19T12:06:47.875Z,6.72
2023-03-19T12:09:20.070Z,6.13
2023-03-19T12:12:00.638Z,5.35
2023-03-19T12:14:32.850Z,6.35
2023-03-19T12:17:30.504Z,7.65
2023-03-19T12:20:28.028Z,5.85
2023-03-19T12:23:09.223Z,5.93
2023-03-19T12:25:50.079Z,5.45
2023-03-19T12:28:36.180Z,5.95
2023-03-19T12:31:39.545Z,6.20
2023-03-19T12:34:15.181Z,5.22
2023-03-19T12:36:50.815Z,7.00
2023-03-19T12:39:26.516Z,6.25
2023-03-19T12:41:54.875Z,6.13
2023-03-19T12:44:37.903Z,5.68
2023-03-19T12:47:27.300Z,5.82
2023-03-19T12:50:01.563Z,6.03
2023-03-19T12:52:38.762Z,6.18
2023-03-19T12:55:25.595Z,8.27
2023-03-19T12:57:58.823Z,6.43
2023-03-19T13:00:39.191Z,6.13
2023-03-19T13:03:08.436Z,8.57
2023-03-19T13:05:48.700Z,7.60
2023-03-19T13:08:45.050Z,6.10
2023-03-19T13:11:17.172Z,10.48
2023-03-19T13:14:02.514Z,6.60
2023-03-19T13:16:52.904Z,6.75
2023-03-19T13:19:28.228Z,6.78
2023-03-19T13:22:04.362Z,8.00
2023-03-19T13:24:34.854Z,7.13
2023-03-19T13:27:02.470Z,9.38
2023-03-19T13:29:33.843Z,9.13
2023-03-19T13:32:21.828Z,8.68
2023-03-19T13:34:53.721Z,7.47
2023-03-19T13:37:28.512Z,9.20
2023-03-19T13:39:57.477Z,8.32
2023-03-19T13:42:38.504Z,6.18
2023-03-19T13:45:20.418Z,11.60
2023-03-19T13:47:49.498Z,8.52
2023-03-19T13:50:27.019Z,7.85
2023-03-19T13:53:13.162Z,6.93
2023-03-19T13:55:51.653Z,5.97
2023-03-19T13:58:39.879Z,7.95
2023-03-19T14:01:12.895Z,5.55
2023-03-19T14:03:41.948Z,5.88
2023-03-19T14:06:30.870Z,6.47
2023-03-19T14:08:58.068Z,6.85
2023-03-19T14:11:25.488Z,6.57
2023-03-19T14:13:54.014Z,5.07
2023-03-19T14:16:29.084Z,8.65
2023-03-19T14:19:01.717Z,5.65
2023-03-19T14:21:37.420Z,5.97
2023-03-19T14:27:30.667Z,7.35
2023-03-19T14:30:00.845Z,4.97
2023-03-19T14:32:34.771Z,4.47
2023-03-19T14:35:05.192Z,6.85
2023-03-19T14:37:44.694Z,7.15
2023-03-19T14:40:14.941Z,5.97
2023-03-19T14:43:18.136Z,5.18
2023-03-19T14:45:50.523Z,6.40
2023-03-19T14:48:51.216Z,6.30
2023-03-19T14:51:35.905Z,6.55
2023-03-19T14:54:32.985Z,5.68
2023-03-19T14:57:06.723Z,4.88
2023-03-19T14:59:42.504Z,5.70
2023-03-19T15:02:21.699Z,7.40
2023-03-19T15:04:48.634Z,4.70
2023-03-19T15:07:23.274Z,5.25
2023-03-19T15:09:57.104Z,6.47
2023-03-19T15:12:35.010Z,5.75
2023-03-19T15:15:22.369Z,5.93
2023-03-19T15:18:03.463Z,8.27
2023-03-19T15:20:56.218Z,7.78
2023-03-19T15:23:28.017Z,6.70
2023-03-19T15:26:03.329Z,5.82
2023-03-19T15:28:36.407Z,5.38
2023-03-19T15:31:26.262Z,7.53
2023-03-19T15:33:53.199Z,5.50
2023-03-19T15:36:31.735Z,6.95
2023-03-19T15:39:04.931Z,4.80
2023-03-19T15:41:33.569Z,6.13
2023-03-19T15:44:01.185Z,6.85
2023-03-19T15:46:32.497Z,6.22
2023-03-19T15:49:08.358Z,5.90
2023-03-19T15:51:35.177Z,7.47
2023-03-19T15:54:02.512Z,9.80
2023-03-19T15:56:29.242Z,5.75
2023-03-19T15:58:57.505Z,9.23
2023-03-19T16:01:24.645Z,10.57
2023-03-19T16:04:02.544Z,9.02
2023-03-19T16:06:33.417Z,9.02
2023-03-19T16:09:21.829Z,9.27
2023-03-19T16:11:49.067Z,7.70
2023-03-19T16:14:17.249Z,9.27
2023-03-19T16:16:46.536Z,11.85
2023-03-19T16:19:31.346Z,7.88
2023-03-19T16:22:01.101Z,11.50
2023-03-19T16:24:32.987Z,13.93
2023-03-19T16:27:03.915Z,16.23
2023-03-19T16:29:33.754Z,8.63
2023-03-19T16:32:03.516Z,10.23
2023-03-19T16:34:46.691Z,11.05
2023-03-19T16:37:33.045Z,8.80
2023-03-19T16:40:24.066Z,11.80
2023-03-19T16:42:54.640Z,7.85
2023-03-19T16:45:29.198Z,8.15
2023-03-19T16:47:58.197Z,9.63
2023-03-19T16:50:37.108Z,11.38
2023-03-19T16:53:06.565Z,8.60
2023-03-19T16:55:35.399Z,6.93
2023-03-19T16:58:07.675Z,10.93
2023-03-19T17:00:34.716Z,10.55
2023-03-19T17:03:01.625Z,12.98
2023-03-19T17:05:31.131Z,8.43
2023-03-19T17:07:58.360Z,12.95
2023-03-19T17:10:28.058Z,8.82
2023-03-19T17:12:55.664Z,10.38
2023-03-19T17:15:28.602Z,8.00
2023-03-19T17:17:56.744Z,12.98
2023-03-19T17:20:30.208Z,9.18
2023-03-19T17:22:56.886Z,13.77
2023-03-19T17:25:23.871Z,15.60
2023-03-19T17:27:52.720Z,10.02
2023-03-19T17:30:19.496Z,8.90
2023-03-19T17:32:52.477Z,12.70
2023-03-19T17:35:21.009Z,9.13
2023-03-19T17:37:50.018Z,8.65
2023-03-19T17:40:27.603Z,8.57
2023-03-19T17:42:56.232Z,10.43
2023-03-19T17:45:28.949Z,9.63
2023-03-19T17:47:57.301Z,8.75
2023-03-19T17:50:31.324Z,13.57
2023-03-19T17:53:02.607Z,12.68
2023-03-19T17:55:34.648Z,11.52
2023-03-19T17:58:01.779Z,13.15
2023-03-19T18:00:28.551Z,12.20
2023-03-19T18:02:56.946Z,15.68
2023-03-19T18:05:25.235Z,13.43
2023-03-19T18:07:54.921Z,11.88
2023-03-19T18:10:32.280Z,12.57
2023-03-19T18:13:01.623Z,14.60
2023-03-19T18:15:30.429Z,15.93
2023-03-19T18:17:58.644Z,12.05
2023-03-19T18:20:29.505Z,12.57
2023-03-19T18:22:56.186Z,13.75
2023-03-19T18:25:26.390Z,8.73
2023-03-19T18:27:53.574Z,11.82
2023-03-19T18:30:22.827Z,10.00
2023-03-19T18:32:56.286Z,11.48
2023-03-19T18:35:30.270Z,12.93
2023-03-19T18:37:57.728Z,8.32
2023-03-19T18:40:27.136Z,10.60
2023-03-19T18:42:54.897Z,12.95
2023-03-19T18:45:23.681Z,13.00
2023-03-19T18:47:50.996Z,9.38
2023-03-19T18:50:21.898Z,9.13
2023-03-19T18:52:51.498Z,10.27
2023-03-19T18:55:20.326Z,8.90
2023-03-19T18:57:53.818Z,6.85
2023-03-19T19:00:25.167Z,6.93
2023-03-19T19:02:53.867Z,9.90
2023-03-19T19:05:23.880Z,11.45
2023-03-19T19:07:51.445Z,8.10
2023-03-19T19:10:18.490Z,8.90
2023-03-19T19:12:47.566Z,9.82
2023-03-19T19:15:20.413Z,7.13
2023-03-19T19:17:56.906Z,6.00
2023-03-19T19:23:01.686Z,6.68
2023-03-19T19:25:29.152Z,6.68
2023-03-19T19:28:03.117Z,7.43
2023-03-19T19:30:29.992Z,6.30
2023-03-19T19:32:59.146Z,4.43
2023-03-19T19:35:29.526Z,4.95
2023-03-19T19:37:56.406Z,5.22
2023-03-19T19:40:35.263Z,6.18
2023-03-19T19:43:02.227Z,5.97
2023-03-19T19:45:34.274Z,3.50
2023-03-19T19:48:01.185Z,7.82
2023-03-19T19:50:28.181Z,5.32
2023-03-19T19:52:59.635Z,4.20
2023-03-19T19:55:26.976Z,4.38
2023-03-19T19:57:55.124Z,2.17
2023-03-19T20:00:27.166Z,3.05
2023-03-19T20:02:57.104Z,2.67
2023-03-19T20:05:34.446Z,5.15
2023-03-19T20:08:01.805Z,4.65
2023-03-19T20:10:31.109Z,2.55
2023-03-19T20:13:03.357Z,4.80
2023-03-19T20:15:34.330Z,4.07
2023-03-19T20:18:02.505Z,2.50
2023-03-19T20:20:33.296Z,3.15
2023-03-19T20:23:01.886Z,2.40
2023-03-19T20:25:32.786Z,3.78
2023-03-19T20:28:00.527Z,5.53
2023-03-19T20:30:42.089Z,4.25
2023-03-19T20:33:10.696Z,3.72
2023-03-19T20:35:39.386Z,2.47
2023-03-19T20:38:06.849Z,3.22
2023-03-19T20:40:48.938Z,2.28
2023-03-19T20:43:26.177Z,3.80
2023-03-19T20:45:57.015Z,6.90
2023-03-19T20:48:24.289Z,4.32
2023-03-19T20:50:54.105Z,3.60
2023-03-19T20:53:21.183Z,2.78
2023-03-19T20:55:50.166Z,2.30
2023-03-19T20:58:32.362Z,5.25
2023-03-19T21:01:02.864Z,3.67
2023-03-19T21:03:33.160Z,3.83
2023-03-19T21:06:12.254Z,6.93
2023-03-19T21:08:43.316Z,3.97
2023-03-19T21:11:18.982Z,2.30
2023-03-19T21:13:52.072Z,2.20
2023-03-19T21:16:26.381Z,3.20
2023-03-19T21:18:54.101Z,2.78
2023-03-19T21:21:29.762Z,2.70
2023-03-19T21:23:59.629Z,8.43
2023-03-19T21:26:26.402Z,2.78
2023-03-19T21:28:57.443Z,2.58
2023-03-19T21:31:24.481Z,3.45
2023-03-19T21:33:51.674Z,3.33
2023-03-19T21:36:20.739Z,3.08
2023-03-19T21:38:47.733Z,4.75
2023-03-19T21:41:30.359Z,2.47
2023-03-19T21:44:02.700Z,2.20
2023-03-19T21:46:30.954Z,3.58
2023-03-19T21:48:58.452Z,3.42
2023-03-19T21:51:26.430Z,2.63
2023-03-19T21:53:53.079Z,3.80
2023-03-19T21:56:24.780Z,2.38
2023-03-19T21:58:52.719Z,5.28
2023-03-19T22:01:25.473Z,2.28
2023-03-19T22:03:56.894Z,2.50
2023-03-19T22:06:24.344Z,4.38
2023-03-19T22:08:53.909Z,3.15
2023-03-19T22:11:34.757Z,3.92
2023-03-19T22:16:56.228Z,3.42
2023-03-19T22:19:23.893Z,3.40
2023-03-19T22:21:50.568Z,3.70
2023-03-19T22:24:18.830Z,4.10
2023-03-19T22:26:47.814Z,2.88
2023-03-19T22:29:18.216Z,1.80
2023-03-19T22:31:45.277Z,2.75
2023-03-19T22:34:18.346Z,1.80
2023-03-19T22:36:45.068Z,3.05
2023-03-19T22:39:13.862Z,9.73
2023-03-19T22:41:45.422Z,2.42
2023-03-19T22:44:33.717Z,2.03
2023-03-19T22:47:01.185Z,2.20
2023-03-19T22:49:28.469Z,3.05
2023-03-19T22:51:55.845Z,2.40
2023-03-19T22:54:22.446Z,2.17
2023-03-19T22:56:49.100Z,1.63
2023-03-19T22:59:16.256Z,3.33
2023-03-19T23:01:47.353Z,2.42
2023-03-19T23:04:23.856Z,5.57
2023-03-19T23:06:52.048Z,2.90
2023-03-19T23:09:26.404Z,3.78
2023-03-19T23:11:56.751Z,2.28
2023-03-19T23:14:30.207Z,2.80
2023-03-19T23:17:01.076Z,2.63
2023-03-19T23:19:33.185Z,2.97
2023-03-19T23:22:03.891Z,4.53
2023-03-19T23:24:30.938Z,3.53
2023-03-19T23:26:58.676Z,3.35
2023-03-19T23:29:29.910Z,3.53
2023-03-19T23:32:02.047Z,1.80
2023-03-19T23:34:28.855Z,2.90
2023-03-19T23:36:57.237Z,3.78
2023-03-19T23:39:24.191Z,4.47
2023-03-19T23:41:53.682Z,5.13
2023-03-19T23:44:20.864Z,2.83
2023-03-19T23:46:49.339Z,2.30
2023-03-19T23:49:24.728Z,3.10
2023-03-19T23:51:54.342Z,2.17
2023-03-19T23:54:34.239Z,2.15
2023-03-19T23:57:07.156Z,2.40
2023-03-19T23:59:37.925Z,2.47
